CYSC

Sherbrooke Airport

Sherbrooke, , Canada
METAR CYSC 171100Z AUTO 00000KT 9SM OVC060 M02/M04 A2969 RMK SLP066
Observed Flight Rules
Dec-17 @ 11:00 UTC (an hour ago) Visual Flight Rules
Visibility Clouds
9 miles
  • Overcast at 6,000' AGL
Temperatures Readings
Current -2°C / 28°F
Dewpoint -4°C / 25°F
Humidity 86%
Altimeter 29.69" Hg
Pressure 1006.6 hPa
Elevation 241
METAR CYSC 171100Z AUTO 00000KT 9SM OVC060 M02/M04 A2969 RMK SLP066
Observed Flight Rules
Dec-17 @ 11:00 UTC
(an hour ago)
VFR
Clouds
  • Overcast at 6,000' AGL
Temperature Dewpoint
-2°C / 28°F -4°C / 25°F
Humidity Altimeter Pressure
86% 29.69" Hg 1006.6 hPa